createdAt,value
2022-12-20T00:07:45.861Z,0.30
2022-12-20T00:17:59.886Z,0.39
2022-12-20T00:28:12.868Z,0.44
2022-12-20T00:38:25.842Z,0.46
2022-12-20T00:48:38.892Z,0.60
2022-12-20T00:58:51.854Z,0.67
2022-12-20T01:09:10.904Z,0.78
2022-12-20T01:19:25.903Z,0.79
2022-12-20T01:29:38.888Z,0.65
2022-12-20T01:39:51.886Z,0.76
2022-12-20T01:50:05.893Z,0.65
2022-12-20T02:00:19.891Z,0.65
2022-12-20T02:10:43.916Z,0.65
2022-12-20T02:21:14.931Z,0.63
2022-12-20T02:31:38.016Z,0.71
2022-12-20T02:41:55.905Z,0.71
2022-12-20T02:52:09.936Z,0.67
2022-12-20T03:02:23.075Z,0.53
2022-12-20T03:12:35.977Z,0.55
2022-12-20T03:22:48.965Z,0.47
2022-12-20T03:33:07.964Z,0.44
2022-12-20T03:43:21.026Z,0.42
2022-12-20T03:53:33.965Z,0.49
2022-12-20T04:03:47.158Z,0.39
2022-12-20T04:14:02.009Z,0.42
2022-12-20T04:24:14.982Z,0.41
2022-12-20T04:34:28.017Z,0.37
2022-12-20T04:44:40.979Z,0.45
2022-12-20T04:54:54.010Z,0.46
2022-12-20T05:05:06.971Z,0.51
2022-12-20T05:15:20.023Z,0.55
2022-12-20T05:25:50.994Z,0.57
2022-12-20T05:36:04.034Z,0.53
2022-12-20T05:46:17.056Z,0.49
2022-12-20T05:56:30.055Z,0.43
2022-12-20T06:06:43.066Z,0.43
2022-12-20T06:16:56.074Z,0.41
2022-12-20T06:27:10.042Z,0.27
2022-12-20T06:37:23.091Z,0.31
2022-12-20T06:47:36.055Z,0.26
2022-12-20T06:57:49.079Z,0.23
2022-12-20T07:08:02.079Z,0.34
2022-12-20T07:18:15.095Z,0.46
2022-12-20T07:28:28.075Z,0.56
2022-12-20T07:38:42.104Z,0.82
2022-12-20T07:48:55.155Z,0.87
2022-12-20T07:59:09.106Z,1.12
2022-12-20T08:09:28.140Z,1.25
2022-12-20T08:19:41.087Z,1.37
2022-12-20T08:30:01.140Z,1.52
2022-12-20T08:40:15.087Z,1.73
2022-12-20T08:50:28.152Z,2.31
2022-12-20T09:00:41.094Z,3.47
2022-12-20T09:10:54.165Z,3.61
2022-12-20T09:21:11.141Z,3.68
2022-12-20T09:31:33.216Z,3.30
2022-12-20T09:41:48.148Z,2.80
2022-12-20T09:52:14.180Z,3.10
2022-12-20T10:13:16.200Z,4.69
2022-12-20T10:23:35.148Z,3.81
2022-12-20T10:33:55.202Z,3.17
2022-12-20T10:44:11.151Z,2.93
2022-12-20T10:54:36.231Z,2.84
2022-12-20T11:04:49.162Z,2.89
2022-12-20T11:15:34.898Z,2.90
2022-12-20T11:26:00.193Z,3.40
2022-12-20T11:36:25.224Z,3.95
2022-12-20T11:47:04.264Z,4.41
2022-12-20T11:57:42.595Z,3.84
2022-12-20T12:08:13.539Z,3.50
2022-12-20T12:18:50.256Z,3.40
2022-12-20T12:29:13.304Z,3.04
2022-12-20T12:39:38.283Z,2.92
2022-12-20T12:49:52.242Z,2.96
2022-12-20T13:00:05.285Z,2.91
2022-12-20T13:10:18.269Z,2.95
2022-12-20T13:20:39.272Z,2.87
2022-12-20T13:30:53.360Z,2.81
2022-12-20T13:41:08.318Z,2.54
2022-12-20T13:51:26.293Z,2.51
2022-12-20T14:01:39.463Z,2.41
2022-12-20T14:11:55.296Z,2.24
2022-12-20T14:22:08.326Z,2.16
2022-12-20T14:32:27.303Z,2.06
2022-12-20T14:42:45.348Z,1.93
2022-12-20T14:52:58.331Z,1.85
2022-12-20T15:03:22.513Z,1.91
2022-12-20T15:13:39.326Z,1.84
2022-12-20T15:23:56.335Z,1.79
2022-12-20T15:34:19.395Z,1.79
2022-12-20T15:44:34.326Z,1.62
2022-12-20T15:54:47.394Z,1.57
2022-12-20T16:05:02.396Z,1.33
2022-12-20T16:15:27.397Z,1.32
2022-12-20T16:25:41.398Z,1.22
2022-12-20T16:36:00.392Z,1.16
2022-12-20T16:46:13.492Z,1.11
2022-12-20T16:56:26.400Z,1.12
2022-12-20T17:06:39.438Z,1.05
2022-12-20T17:16:52.471Z,1.14
2022-12-20T17:27:05.420Z,1.28
2022-12-20T17:37:18.508Z,1.37
2022-12-20T17:47:31.420Z,1.36
2022-12-20T17:57:44.413Z,1.35
2022-12-20T18:07:59.433Z,1.51
2022-12-20T18:18:12.442Z,1.45
2022-12-20T18:28:25.490Z,1.33
2022-12-20T18:38:39.441Z,1.31
2022-12-20T18:48:53.470Z,1.12
2022-12-20T18:59:11.792Z,1.01
2022-12-20T19:09:25.494Z,0.84
2022-12-20T19:19:38.461Z,0.89
2022-12-20T19:29:51.488Z,0.82
2022-12-20T19:40:04.489Z,0.79
2022-12-20T19:50:17.501Z,0.75
2022-12-20T20:00:30.515Z,0.84
2022-12-20T20:10:43.520Z,0.86
2022-12-20T20:20:56.525Z,0.87
2022-12-20T20:31:17.607Z,0.78
2022-12-20T20:41:30.545Z,0.86
2022-12-20T20:51:43.557Z,0.88
2022-12-20T21:01:56.610Z,0.98
2022-12-20T21:12:09.702Z,0.99
2022-12-20T21:22:22.550Z,1.08
2022-12-20T21:32:35.559Z,1.29
2022-12-20T21:42:48.544Z,1.29
2022-12-20T21:53:01.562Z,1.30
2022-12-20T22:03:14.655Z,1.39
2022-12-20T22:13:27.584Z,1.47
2022-12-20T22:23:47.578Z,1.56
2022-12-20T22:34:08.615Z,1.57
2022-12-20T22:44:21.610Z,1.66
2022-12-20T22:54:34.640Z,1.72
2022-12-20T23:04:47.583Z,1.69
2022-12-20T23:15:35.677Z,1.57
2022-12-20T23:25:50.600Z,1.43
2022-12-20T23:36:07.651Z,1.29
2022-12-20T23:46:23.731Z,1.26
2022-12-20T23:56:36.636Z,1.21
